Aberdeen Proving Ground, Maryland
Current Conditions -  °F | °C
As of 7:45 PM on Friday 31 Oct 2014 (Local Time) from KMTN Reporting Station
Scattered Clouds Scattered Clouds  
Wind Chill: 52°   Ceiling: Unl
Heat Index: 52°   Visibility: 10mi
Dew Point: 41°   Wind: 0mph
Humidity: 67%   Direction: NA
Pressure: 29.89"   Gusts: NA
Location:  39.48°N, 76.13°W
Report Text: KMTN 312345Z 00000KT 10SM SCT060 11/05 A2989
Loading
Personal Weather Stations






























Interactive Weather Map
Tropical Storm Tracking
New forecast layout! Learn more

10-Day Weather Forecast

Advertisements
Track Severe Weather on mobile